createdAt,value
2023-03-07T00:00:39.930Z,0.26
2023-03-07T00:03:48.637Z,0.28
2023-03-07T00:06:55.268Z,0.29
2023-03-07T00:10:01.082Z,0.39
2023-03-07T00:13:07.722Z,0.39
2023-03-07T00:16:18.254Z,0.38
2023-03-07T00:19:27.606Z,0.36
2023-03-07T00:22:33.469Z,0.34
2023-03-07T00:25:39.864Z,0.39
2023-03-07T00:28:45.755Z,0.42
2023-03-07T00:31:52.845Z,0.43
2023-03-07T00:35:03.862Z,0.39
2023-03-07T00:38:10.313Z,0.33
2023-03-07T00:41:18.620Z,0.39
2023-03-07T00:44:25.636Z,0.39
2023-03-07T00:47:31.154Z,0.44
2023-03-07T00:50:40.709Z,0.47
2023-03-07T00:53:47.750Z,0.51
2023-03-07T00:56:54.294Z,0.57
2023-03-07T01:00:00.180Z,0.52
2023-03-07T01:03:06.709Z,0.49
2023-03-07T01:06:19.445Z,0.51
2023-03-07T01:09:27.104Z,0.47
2023-03-07T01:12:32.960Z,0.38
2023-03-07T01:15:40.055Z,0.36
2023-03-07T01:18:47.096Z,0.28
2023-03-07T01:21:56.290Z,0.23
2023-03-07T01:25:02.321Z,0.23
2023-03-07T01:28:09.619Z,0.13
2023-03-07T01:31:16.636Z,0.22
2023-03-07T01:34:23.296Z,0.30
2023-03-07T01:37:33.479Z,0.32
2023-03-07T01:40:42.879Z,0.35
2023-03-07T01:43:48.603Z,0.32
2023-03-07T01:47:00.963Z,0.28
2023-03-07T01:50:20.944Z,0.27
2023-03-07T01:53:30.308Z,0.22
2023-03-07T01:56:39.195Z,0.20
2023-03-07T01:59:54.017Z,0.19
2023-03-07T02:03:15.170Z,0.15
2023-03-07T02:06:23.658Z,0.18
2023-03-07T02:09:38.497Z,0.20
2023-03-07T02:12:45.820Z,0.19
2023-03-07T02:15:53.081Z,0.16
2023-03-07T02:19:00.477Z,0.16
2023-03-07T02:22:14.218Z,0.06
2023-03-07T02:25:38.971Z,0.04
2023-03-07T02:28:51.488Z,0.03
2023-03-07T02:31:58.275Z,0.02
2023-03-07T02:35:03.933Z,0.01
2023-03-07T02:38:10.658Z,-0.01
2023-03-07T02:41:20.253Z,-0.10
2023-03-07T02:44:29.569Z,-0.08
2023-03-07T02:47:36.104Z,-0.08
2023-03-07T02:50:42.231Z,-0.07
2023-03-07T02:53:49.503Z,-0.08
2023-03-07T02:56:55.912Z,-0.05
2023-03-07T03:00:06.483Z,-0.02
2023-03-07T03:03:12.298Z,0.07
2023-03-07T03:06:20.053Z,0.08
2023-03-07T03:09:25.863Z,0.18
2023-03-07T03:12:32.561Z,0.22
2023-03-07T03:15:41.234Z,0.26
2023-03-07T03:18:48.100Z,0.29
2023-03-07T03:21:53.564Z,0.29
2023-03-07T03:25:00.062Z,0.29
2023-03-07T03:28:05.835Z,0.26
2023-03-07T03:31:18.312Z,0.30
2023-03-07T03:34:24.162Z,0.29
2023-03-07T03:37:31.182Z,0.34
2023-03-07T03:40:37.076Z,0.37
2023-03-07T03:43:43.707Z,0.39
2023-03-07T03:46:52.420Z,0.31
2023-03-07T03:50:01.316Z,0.31
2023-03-07T03:53:07.619Z,0.25
2023-03-07T03:56:17.481Z,-1.82
2023-03-07T03:59:23.113Z,0.32
2023-03-07T04:02:33.533Z,0.34
2023-03-07T04:05:39.225Z,0.37
2023-03-07T04:08:46.598Z,0.38
2023-03-07T04:11:52.766Z,0.34
2023-03-07T04:14:59.264Z,0.40
2023-03-07T04:18:07.951Z,0.39
2023-03-07T04:21:14.636Z,0.38
2023-03-07T04:24:20.455Z,0.46
2023-03-07T04:27:27.347Z,0.46
2023-03-07T04:30:32.999Z,0.48
2023-03-07T04:33:42.597Z,0.53
2023-03-07T04:36:48.240Z,0.58
2023-03-07T04:39:54.964Z,0.51
2023-03-07T04:43:00.512Z,0.57
2023-03-07T04:46:08.062Z,0.55
2023-03-07T04:49:16.554Z,0.45
2023-03-07T04:52:23.094Z,0.37
2023-03-07T04:55:29.191Z,0.26
2023-03-07T04:58:36.966Z,0.33
2023-03-07T05:01:43.433Z,0.29
2023-03-07T05:04:52.948Z,0.21
2023-03-07T05:07:58.912Z,0.24
2023-03-07T05:11:05.994Z,0.21
2023-03-07T05:14:11.731Z,0.24
2023-03-07T05:17:18.493Z,0.24
2023-03-07T05:20:27.047Z,0.20
2023-03-07T05:23:33.539Z,0.21
2023-03-07T05:26:39.764Z,0.18
2023-03-07T05:29:46.339Z,0.16
2023-03-07T05:32:51.861Z,0.19
2023-03-07T05:36:04.206Z,0.22
2023-03-07T05:39:12.345Z,0.24
2023-03-07T05:42:19.536Z,0.20
2023-03-07T05:45:26.784Z,0.20
2023-03-07T05:48:33.726Z,0.16
2023-03-07T05:51:42.713Z,0.11
2023-03-07T05:54:51.309Z,0.10
2023-03-07T05:57:57.631Z,0.12
2023-03-07T06:01:05.751Z,-0.07
2023-03-07T06:04:13.106Z,0.15
2023-03-07T06:07:22.651Z,0.20
2023-03-07T06:10:29.270Z,0.20
2023-03-07T06:13:36.287Z,0.26
2023-03-07T06:16:41.738Z,0.31
2023-03-07T06:19:48.304Z,0.43
2023-03-07T06:22:56.924Z,0.52
2023-03-07T06:26:04.312Z,0.48
2023-03-07T06:29:10.283Z,0.54
2023-03-07T06:32:17.177Z,0.60
2023-03-07T06:35:22.850Z,0.60
2023-03-07T06:38:33.479Z,0.58
2023-03-07T06:41:40.325Z,0.65
2023-03-07T06:44:46.735Z,0.67
2023-03-07T06:47:52.508Z,0.72
2023-03-07T06:51:04.057Z,0.76
2023-03-07T06:54:13.154Z,0.80
2023-03-07T06:57:19.843Z,0.76
2023-03-07T07:00:25.792Z,0.88
2023-03-07T07:03:32.503Z,0.97
2023-03-07T07:06:38.003Z,1.01
2023-03-07T07:09:47.145Z,1.06
2023-03-07T07:12:54.710Z,1.03
2023-03-07T07:16:06.349Z,1.16
2023-03-07T07:19:13.348Z,1.23
2023-03-07T07:22:21.167Z,1.27
2023-03-07T07:25:31.443Z,1.21
2023-03-07T07:28:37.915Z,1.30
2023-03-07T07:31:45.851Z,1.36
2023-03-07T07:34:52.666Z,1.50
2023-03-07T07:37:58.765Z,1.52
2023-03-07T07:41:08.789Z,1.65
2023-03-07T07:44:15.054Z,0.93
2023-03-07T07:47:51.474Z,1.94
2023-03-07T07:50:57.477Z,1.98
2023-03-07T07:54:03.996Z,2.05
2023-03-07T07:57:13.539Z,2.10
2023-03-07T08:00:22.500Z,2.13
2023-03-07T08:03:28.280Z,2.24
2023-03-07T08:06:35.004Z,2.26
2023-03-07T08:09:40.787Z,2.27
2023-03-07T08:12:54.466Z,2.39
2023-03-07T08:16:00.186Z,2.37
2023-03-07T08:19:07.572Z,2.36
2023-03-07T08:22:13.256Z,2.16
2023-03-07T08:25:23.871Z,2.25
2023-03-07T08:28:32.550Z,2.33
2023-03-07T08:31:39.172Z,2.39
2023-03-07T08:34:44.787Z,2.33
2023-03-07T08:37:52.425Z,2.49
2023-03-07T08:41:02.040Z,2.59
2023-03-07T08:44:11.276Z,2.64
2023-03-07T08:47:16.898Z,2.76
2023-03-07T08:50:23.819Z,1.84
2023-03-07T08:53:29.397Z,2.87
2023-03-07T08:56:35.822Z,2.93
2023-03-07T08:59:44.056Z,2.98
2023-03-07T09:02:50.536Z,3.10
2023-03-07T09:05:55.992Z,3.17
2023-03-07T09:09:02.382Z,3.34
2023-03-07T09:12:08.415Z,3.32
2023-03-07T09:15:18.102Z,3.29
2023-03-07T09:18:24.625Z,3.24
2023-03-07T09:21:31.137Z,3.31
2023-03-07T09:24:36.822Z,3.35
2023-03-07T09:27:45.776Z,3.38
2023-03-07T09:30:54.068Z,3.40
2023-03-07T09:34:00.514Z,3.09
2023-03-07T09:37:06.041Z,3.40
2023-03-07T09:40:23.768Z,3.39
2023-03-07T09:43:46.103Z,3.46
2023-03-07T09:48:11.834Z,3.53
2023-03-07T09:51:24.613Z,3.43
2023-03-07T09:54:44.583Z,3.84
2023-03-07T09:57:56.300Z,3.96
2023-03-07T10:01:04.246Z,4.04
2023-03-07T10:04:27.334Z,4.00
2023-03-07T10:07:43.192Z,3.91
2023-03-07T10:11:04.324Z,3.63
2023-03-07T10:14:31.072Z,3.49
2023-03-07T10:18:18.244Z,3.40
2023-03-07T10:21:43.003Z,3.29
2023-03-07T10:25:15.915Z,3.03
2023-03-07T10:28:29.707Z,3.01
2023-03-07T10:31:42.078Z,3.10
2023-03-07T10:34:52.716Z,3.20
2023-03-07T10:38:16.734Z,3.05
2023-03-07T10:41:25.899Z,3.19
2023-03-07T10:44:37.589Z,1.99
2023-03-07T10:47:45.051Z,3.29
2023-03-07T10:51:07.797Z,3.28
2023-03-07T10:54:24.830Z,2.99
2023-03-07T10:57:31.452Z,2.95
2023-03-07T11:00:38.279Z,2.89
2023-03-07T11:03:54.248Z,3.23
2023-03-07T11:07:02.536Z,3.45
2023-03-07T11:10:35.185Z,3.58
2023-03-07T11:13:41.534Z,3.74
2023-03-07T11:16:57.261Z,3.90
2023-03-07T11:20:25.415Z,4.06
2023-03-07T11:23:33.270Z,4.13
2023-03-07T11:26:44.754Z,3.91
2023-03-07T11:30:21.278Z,3.83
2023-03-07T11:33:58.587Z,3.52
2023-03-07T11:37:27.533Z,3.67
2023-03-07T11:40:45.594Z,3.74
2023-03-07T11:44:18.042Z,3.67
2023-03-07T11:47:52.053Z,3.53
2023-03-07T11:51:00.487Z,3.61
2023-03-07T11:54:24.753Z,3.75
2023-03-07T11:58:01.038Z,3.90
2023-03-07T12:01:28.747Z,3.93
2023-03-07T12:05:22.522Z,4.05
2023-03-07T12:08:54.788Z,4.14
2023-03-07T12:12:36.198Z,4.16
2023-03-07T12:15:56.003Z,4.40
2023-03-07T12:19:38.323Z,4.52
2023-03-07T12:23:10.722Z,4.40
2023-03-07T12:26:27.025Z,4.51
2023-03-07T12:29:43.116Z,4.59
2023-03-07T12:32:50.985Z,4.27
2023-03-07T12:36:08.461Z,4.53
2023-03-07T12:39:27.776Z,4.76
2023-03-07T12:42:47.869Z,4.87
2023-03-07T12:46:07.370Z,5.01
2023-03-07T12:49:26.707Z,4.93
2023-03-07T12:52:47.983Z,4.86
2023-03-07T12:56:17.642Z,4.83
2023-03-07T12:59:23.857Z,4.83
2023-03-07T13:02:39.352Z,4.93
2023-03-07T13:05:48.758Z,4.93
2023-03-07T13:09:04.289Z,4.80
2023-03-07T13:12:34.271Z,4.95
2023-03-07T13:16:34.781Z,5.02
2023-03-07T13:19:59.201Z,5.05
2023-03-07T13:23:28.497Z,4.99
2023-03-07T13:26:37.084Z,5.01
2023-03-07T13:30:18.886Z,4.98
2023-03-07T13:33:32.025Z,4.91
2023-03-07T13:36:41.588Z,4.78
2023-03-07T13:40:07.212Z,4.69
2023-03-07T13:44:04.867Z,4.52
2023-03-07T13:47:45.137Z,4.59
2023-03-07T13:51:12.525Z,4.61
2023-03-07T13:54:18.101Z,4.49
2023-03-07T13:57:36.831Z,4.61
2023-03-07T14:00:58.012Z,4.58
2023-03-07T14:04:14.347Z,4.49
2023-03-07T14:07:29.970Z,4.42
2023-03-07T14:10:37.332Z,4.51
2023-03-07T14:14:26.222Z,4.56
2023-03-07T14:18:03.722Z,4.49
2023-03-07T14:21:29.142Z,4.53
2023-03-07T14:25:00.694Z,4.54
2023-03-07T14:28:22.641Z,4.54
2023-03-07T14:31:32.527Z,4.63
2023-03-07T14:34:41.840Z,4.66
2023-03-07T14:37:48.852Z,4.72
2023-03-07T14:41:29.462Z,4.63
2023-03-07T14:45:20.111Z,4.73
2023-03-07T14:48:54.838Z,4.91
2023-03-07T14:52:06.875Z,4.98
2023-03-07T14:55:22.969Z,5.11
2023-03-07T14:58:34.979Z,5.20
2023-03-07T15:01:43.703Z,5.26
2023-03-07T15:04:57.467Z,5.39
2023-03-07T15:08:06.327Z,5.47
2023-03-07T15:11:29.897Z,5.53
2023-03-07T15:14:49.526Z,5.50
2023-03-07T15:18:01.401Z,5.45
2023-03-07T15:21:11.193Z,5.45
2023-03-07T15:24:32.457Z,5.38
2023-03-07T15:27:38.051Z,5.20
2023-03-07T15:30:44.870Z,5.21
2023-03-07T15:33:50.588Z,5.15
2023-03-07T15:36:57.395Z,5.06
2023-03-07T15:40:28.747Z,5.04
2023-03-07T15:43:39.007Z,5.01
2023-03-07T15:46:49.980Z,4.89
2023-03-07T15:50:01.041Z,4.86
2023-03-07T15:53:12.766Z,4.79
2023-03-07T15:56:36.697Z,4.68
2023-03-07T15:59:51.950Z,4.65
2023-03-07T16:03:28.043Z,3.88
2023-03-07T16:06:45.161Z,4.57
2023-03-07T16:09:51.980Z,4.56
2023-03-07T16:13:03.593Z,4.55
2023-03-07T16:16:25.078Z,4.58
2023-03-07T16:19:31.532Z,4.63
2023-03-07T16:22:37.904Z,4.63
2023-03-07T16:25:45.957Z,4.65
2023-03-07T16:28:57.140Z,4.61
2023-03-07T16:32:04.339Z,4.61
2023-03-07T16:35:18.614Z,4.64
2023-03-07T16:38:24.093Z,4.63
2023-03-07T16:41:30.979Z,4.56
2023-03-07T16:44:43.573Z,4.49
2023-03-07T16:47:50.588Z,4.49
2023-03-07T16:50:56.224Z,4.47
2023-03-07T16:54:02.825Z,4.48
2023-03-07T16:57:15.849Z,4.45
2023-03-07T17:00:29.112Z,4.42
2023-03-07T17:03:34.711Z,4.38
2023-03-07T17:06:42.443Z,4.24
2023-03-07T17:09:48.286Z,4.16
2023-03-07T17:12:57.928Z,4.13
2023-03-07T17:16:11.520Z,4.07
2023-03-07T17:19:29.020Z,3.97
2023-03-07T17:22:34.889Z,3.91
2023-03-07T17:25:41.397Z,3.90
2023-03-07T17:28:48.117Z,3.91
2023-03-07T17:31:57.262Z,3.84
2023-03-07T17:35:02.815Z,3.87
2023-03-07T17:38:09.552Z,3.86
2023-03-07T17:41:15.163Z,3.83
2023-03-07T17:44:21.630Z,3.83
2023-03-07T17:47:30.128Z,3.80
2023-03-07T17:50:36.740Z,3.87
2023-03-07T17:53:42.549Z,3.88
2023-03-07T17:56:48.990Z,3.87
2023-03-07T17:59:54.656Z,3.80
2023-03-07T18:03:04.192Z,3.83
2023-03-07T18:06:11.087Z,3.85
2023-03-07T18:09:18.954Z,3.84
2023-03-07T18:12:24.438Z,3.85
2023-03-07T18:15:30.909Z,3.86
2023-03-07T18:18:57.704Z,3.81
2023-03-07T18:22:05.408Z,3.77
2023-03-07T18:25:17.292Z,3.72
2023-03-07T18:28:23.754Z,3.65
2023-03-07T18:31:31.169Z,3.59
2023-03-07T18:34:40.299Z,3.60
2023-03-07T18:37:46.327Z,3.59
2023-03-07T18:40:53.973Z,3.55
2023-03-07T18:44:01.775Z,3.53
2023-03-07T18:47:08.406Z,3.47
2023-03-07T18:50:17.373Z,3.52
2023-03-07T18:53:23.800Z,3.51
2023-03-07T18:56:31.139Z,3.56
2023-03-07T18:59:37.501Z,3.53
2023-03-07T19:02:43.108Z,3.56
2023-03-07T19:05:53.604Z,3.62
2023-03-07T19:09:00.027Z,3.60
2023-03-07T19:12:06.781Z,3.64
2023-03-07T19:15:13.830Z,3.66
2023-03-07T19:18:20.289Z,3.67
2023-03-07T19:21:31.064Z,3.64
2023-03-07T19:24:37.970Z,3.73
2023-03-07T19:27:43.574Z,3.74
2023-03-07T19:30:50.669Z,3.73
2023-03-07T19:33:58.908Z,3.73
2023-03-07T19:37:08.363Z,3.73
2023-03-07T19:40:16.042Z,3.79
2023-03-07T19:43:22.564Z,3.74
2023-03-07T19:46:28.516Z,3.75
2023-03-07T19:49:34.912Z,3.75
2023-03-07T19:52:43.351Z,3.77
2023-03-07T19:55:50.550Z,3.69
2023-03-07T19:58:56.629Z,3.63
2023-03-07T20:02:02.983Z,3.66
2023-03-07T20:05:09.881Z,3.67
2023-03-07T20:08:19.780Z,2.27
2023-03-07T20:11:28.177Z,3.61
2023-03-07T20:14:34.548Z,3.57
2023-03-07T20:17:40.053Z,3.52
2023-03-07T20:20:46.522Z,3.54
2023-03-07T20:23:55.903Z,3.57
2023-03-07T20:27:02.888Z,3.68
2023-03-07T20:30:09.849Z,3.60
2023-03-07T20:33:16.333Z,3.60
2023-03-07T20:36:24.960Z,3.64
2023-03-07T20:39:34.216Z,3.68
2023-03-07T20:42:40.037Z,3.73
2023-03-07T20:45:46.468Z,3.75
2023-03-07T20:48:56.558Z,3.73
2023-03-07T20:52:03.059Z,3.65
2023-03-07T20:55:12.338Z,3.65
2023-03-07T20:58:18.823Z,3.63
2023-03-07T21:01:27.000Z,3.62
2023-03-07T21:04:33.754Z,3.61
2023-03-07T21:07:39.513Z,3.58
2023-03-07T21:10:48.872Z,3.61
2023-03-07T21:13:54.592Z,3.60
2023-03-07T21:17:02.924Z,3.62
2023-03-07T21:20:10.218Z,3.60
2023-03-07T21:23:16.618Z,3.60
2023-03-07T21:26:28.276Z,3.63
2023-03-07T21:29:34.664Z,3.58
2023-03-07T21:32:40.294Z,3.56
2023-03-07T21:35:46.691Z,3.57
2023-03-07T21:38:52.860Z,3.47
2023-03-07T21:42:02.217Z,3.49
2023-03-07T21:45:10.412Z,3.45
2023-03-07T21:48:17.183Z,3.46
2023-03-07T21:51:23.612Z,3.44
2023-03-07T21:54:30.012Z,3.36
2023-03-07T21:57:38.796Z,3.40
2023-03-07T22:00:45.140Z,3.40
2023-03-07T22:03:51.207Z,3.39
2023-03-07T22:06:57.561Z,3.42
2023-03-07T22:10:03.600Z,3.45
2023-03-07T22:13:13.531Z,3.44
2023-03-07T22:16:23.500Z,3.33
2023-03-07T22:19:29.980Z,3.27
2023-03-07T22:22:35.487Z,3.30
2023-03-07T22:25:41.918Z,3.38
2023-03-07T22:28:50.203Z,3.36
2023-03-07T22:31:56.638Z,3.35
2023-03-07T22:35:02.223Z,3.32
2023-03-07T22:38:08.650Z,3.34
2023-03-07T22:41:17.019Z,3.35
2023-03-07T22:44:26.268Z,3.40
2023-03-07T22:47:32.496Z,3.37
2023-03-07T22:50:41.902Z,3.27
2023-03-07T22:53:47.477Z,3.21
2023-03-07T22:56:53.853Z,3.19
2023-03-07T23:00:02.259Z,3.10
2023-03-07T23:03:08.707Z,2.92
2023-03-07T23:06:16.586Z,3.00
2023-03-07T23:09:22.931Z,2.96
2023-03-07T23:12:28.726Z,2.92
2023-03-07T23:15:37.922Z,2.91
2023-03-07T23:18:45.560Z,2.84
2023-03-07T23:21:51.937Z,2.84
2023-03-07T23:24:57.721Z,2.78
2023-03-07T23:28:04.280Z,2.57
2023-03-07T23:31:20.555Z,2.64
2023-03-07T23:34:26.939Z,2.63
2023-03-07T23:37:32.582Z,2.67
2023-03-07T23:40:38.995Z,2.66
2023-03-07T23:43:44.995Z,2.74
2023-03-07T23:46:54.439Z,2.72
2023-03-07T23:50:00.174Z,2.66
2023-03-07T23:53:06.593Z,2.65
2023-03-07T23:56:14.717Z,2.68
2023-03-07T23:59:21.064Z,2.63
